createdAt,value
2023-09-15T00:00:21.844Z,7.03
2023-09-15T00:02:48.838Z,7.15
2023-09-15T00:05:16.390Z,6.75
2023-09-15T00:07:42.980Z,6.07
2023-09-15T00:12:59.580Z,8.10
2023-09-15T00:15:27.147Z,7.05
2023-09-15T00:17:56.139Z,7.88
2023-09-15T00:20:22.905Z,6.93
2023-09-15T00:22:54.775Z,6.53
2023-09-15T00:25:24.090Z,7.55
2023-09-15T00:27:53.111Z,7.70
2023-09-15T00:30:23.011Z,6.82
2023-09-15T00:32:50.408Z,7.60
2023-09-15T00:35:19.115Z,7.18
2023-09-15T00:37:50.597Z,6.97
2023-09-15T00:40:19.820Z,7.90
2023-09-15T00:42:48.409Z,7.03
2023-09-15T00:45:17.068Z,7.20
2023-09-15T00:47:47.651Z,7.45
2023-09-15T00:50:15.962Z,6.70
2023-09-15T00:52:46.447Z,7.28
2023-09-15T00:55:14.678Z,8.05
2023-09-15T00:57:41.968Z,7.50
2023-09-15T01:00:13.188Z,7.28
2023-09-15T01:02:46.569Z,6.97
2023-09-15T01:05:21.003Z,7.63
2023-09-15T01:07:48.407Z,7.18
2023-09-15T01:10:15.780Z,6.80
2023-09-15T01:12:44.684Z,7.60
2023-09-15T01:15:11.664Z,7.30
2023-09-15T01:17:59.966Z,7.10
2023-09-15T01:20:54.395Z,7.32
2023-09-15T01:23:42.464Z,7.07
2023-09-15T01:26:21.330Z,7.85
2023-09-15T01:29:15.929Z,7.22
2023-09-15T01:31:44.351Z,7.18
2023-09-15T01:34:14.615Z,6.68
2023-09-15T01:36:41.693Z,6.70
2023-09-15T01:39:09.378Z,6.45
2023-09-15T01:41:36.018Z,7.35
2023-09-15T01:44:02.773Z,7.00
2023-09-15T01:46:30.228Z,6.75
2023-09-15T01:49:00.436Z,6.65
2023-09-15T01:51:29.084Z,7.35
2023-09-15T01:53:55.947Z,7.20
2023-09-15T01:56:24.428Z,7.55
2023-09-15T01:58:51.152Z,6.60
2023-09-15T02:01:18.520Z,6.90
2023-09-15T02:03:45.229Z,6.88
2023-09-15T02:06:17.858Z,6.90
2023-09-15T02:08:48.637Z,7.07
2023-09-15T02:11:15.713Z,7.53
2023-09-15T02:13:43.676Z,7.20
2023-09-15T02:16:12.473Z,7.30
2023-09-15T02:18:39.252Z,7.57
2023-09-15T02:21:05.861Z,6.30
2023-09-15T02:26:03.711Z,7.32
2023-09-15T02:28:30.534Z,7.75
2023-09-15T02:30:57.470Z,7.40
2023-09-15T02:33:24.533Z,7.00
2023-09-15T02:35:51.501Z,6.90
2023-09-15T02:38:18.857Z,6.55
2023-09-15T02:40:45.514Z,7.63
2023-09-15T02:45:39.316Z,7.22
2023-09-15T02:48:07.359Z,8.38
2023-09-15T02:50:34.573Z,6.93
2023-09-15T02:53:01.756Z,8.20
2023-09-15T02:55:28.509Z,7.47
2023-09-15T02:57:56.135Z,7.78
2023-09-15T03:00:22.894Z,8.02
2023-09-15T03:02:50.405Z,7.97
2023-09-15T03:05:21.520Z,6.90
2023-09-15T03:07:48.113Z,7.15
2023-09-15T03:10:16.131Z,8.60
2023-09-15T03:12:42.797Z,7.15
2023-09-15T03:15:10.277Z,7.78
2023-09-15T03:17:40.774Z,8.23
2023-09-15T03:20:16.598Z,7.15
2023-09-15T03:22:44.885Z,7.63
2023-09-15T03:25:12.289Z,8.23
2023-09-15T03:27:40.038Z,7.40
2023-09-15T03:30:07.743Z,7.15
2023-09-15T03:32:35.105Z,7.63
2023-09-15T03:35:02.004Z,8.48
2023-09-15T03:37:28.731Z,7.30
2023-09-15T03:39:55.354Z,7.35
2023-09-15T03:42:22.630Z,7.30
2023-09-15T03:44:50.079Z,7.28
2023-09-15T03:47:16.774Z,6.93
2023-09-15T03:49:44.229Z,8.02
2023-09-15T03:54:37.815Z,8.10
2023-09-15T03:57:06.245Z,7.43
2023-09-15T03:59:33.498Z,8.23
2023-09-15T04:02:00.231Z,7.57
2023-09-15T04:04:26.926Z,8.07
2023-09-15T04:06:54.947Z,7.70
2023-09-15T04:09:21.610Z,8.27
2023-09-15T04:14:14.671Z,8.25
2023-09-15T04:19:08.346Z,6.87
2023-09-15T04:21:36.523Z,7.18
2023-09-15T04:24:03.357Z,7.63
2023-09-15T04:26:29.978Z,7.95
2023-09-15T04:28:59.271Z,8.80
2023-09-15T04:31:26.052Z,8.52
2023-09-15T04:33:52.978Z,7.93
2023-09-15T04:36:19.624Z,8.65
2023-09-15T04:38:46.685Z,8.70
2023-09-15T04:41:13.759Z,8.93
2023-09-15T04:43:40.621Z,9.35
2023-09-15T04:46:07.389Z,7.68
2023-09-15T04:48:34.276Z,8.27
2023-09-15T04:51:00.875Z,7.93
2023-09-15T04:53:29.244Z,8.15
2023-09-15T04:55:55.864Z,8.82
2023-09-15T04:58:22.950Z,8.10
2023-09-15T05:00:49.709Z,7.38
2023-09-15T05:03:16.508Z,8.10
2023-09-15T05:05:44.693Z,8.52
2023-09-15T05:08:12.132Z,7.65
2023-09-15T05:10:38.767Z,6.97
2023-09-15T05:15:35.697Z,7.75
2023-09-15T05:18:03.427Z,6.80
2023-09-15T05:20:31.877Z,7.47
2023-09-15T05:22:58.652Z,7.13
2023-09-15T05:27:51.937Z,8.07
2023-09-15T05:32:45.394Z,8.07
2023-09-15T05:35:12.128Z,8.85
2023-09-15T05:37:38.875Z,7.65
2023-09-15T05:40:06.246Z,8.43
2023-09-15T05:42:32.904Z,7.22
2023-09-15T05:47:26.928Z,6.07
2023-09-15T05:49:53.519Z,5.60
2023-09-15T05:54:46.856Z,5.85
2023-09-15T05:57:13.497Z,5.80
2023-09-15T05:59:40.025Z,5.72
2023-09-15T06:04:35.005Z,5.72
2023-09-15T06:07:02.653Z,5.72
2023-09-15T06:09:30.384Z,6.45
2023-09-15T06:11:57.005Z,5.90
2023-09-15T06:14:23.622Z,6.30
2023-09-15T06:16:50.297Z,6.13
2023-09-15T06:19:16.952Z,5.85
2023-09-15T06:21:43.564Z,5.88
2023-09-15T06:26:37.847Z,6.18
2023-09-15T06:29:04.604Z,6.70
2023-09-15T06:31:31.331Z,6.07
2023-09-15T06:33:57.930Z,6.53
2023-09-15T06:38:51.863Z,8.40
2023-09-15T06:41:18.484Z,7.47
2023-09-15T06:43:45.114Z,9.32
2023-09-15T06:46:12.321Z,7.97
2023-09-15T06:48:39.121Z,7.50
2023-09-15T06:53:32.357Z,8.35
2023-09-15T06:55:59.022Z,8.32
2023-09-15T06:58:27.332Z,8.60
2023-09-15T07:00:57.973Z,7.22
2023-09-15T07:03:26.160Z,8.95
2023-09-15T07:05:53.617Z,8.05
2023-09-15T07:08:20.237Z,7.55
2023-09-15T07:10:52.300Z,8.43
2023-09-15T07:13:19.486Z,7.38
2023-09-15T07:15:46.360Z,8.13
2023-09-15T07:18:13.681Z,6.80
2023-09-15T07:20:40.391Z,6.63
2023-09-15T07:23:07.075Z,7.25
2023-09-15T07:25:33.779Z,7.57
2023-09-15T07:28:00.422Z,7.05
2023-09-15T07:30:27.031Z,7.50
2023-09-15T07:32:53.658Z,7.05
2023-09-15T07:35:20.374Z,7.28
2023-09-15T07:37:47.005Z,6.78
2023-09-15T07:40:13.749Z,6.78
2023-09-15T07:42:40.402Z,6.40
2023-09-15T07:45:07.926Z,6.72
2023-09-15T07:47:34.601Z,6.43
2023-09-15T07:50:01.344Z,7.03
2023-09-15T07:52:28.970Z,6.82
2023-09-15T07:54:55.790Z,6.57
2023-09-15T07:57:22.455Z,6.22
2023-09-15T07:59:52.059Z,6.40
2023-09-15T08:02:19.756Z,6.65
2023-09-15T08:04:46.549Z,6.35
2023-09-15T08:07:13.308Z,6.05
2023-09-15T08:09:40.075Z,6.78
2023-09-15T08:12:07.489Z,7.00
2023-09-15T08:14:34.121Z,6.25
2023-09-15T08:17:01.009Z,5.80
2023-09-15T08:19:28.744Z,6.03
2023-09-15T08:21:55.475Z,5.78
2023-09-15T08:24:22.108Z,6.30
2023-09-15T08:29:15.428Z,6.78
2023-09-15T08:31:42.292Z,5.75
2023-09-15T08:34:09.172Z,5.25
2023-09-15T08:36:35.862Z,6.70
2023-09-15T08:39:03.506Z,5.60
2023-09-15T08:41:41.493Z,5.38
2023-09-15T08:44:12.201Z,6.05
2023-09-15T08:46:42.828Z,5.97
2023-09-15T08:49:10.835Z,5.38
2023-09-15T08:51:38.624Z,5.38
2023-09-15T08:54:05.558Z,5.47
2023-09-15T08:56:32.807Z,5.60
2023-09-15T08:59:00.548Z,5.22
2023-09-15T09:01:28.252Z,5.45
2023-09-15T09:03:55.242Z,4.85
2023-09-15T09:06:24.095Z,5.53
2023-09-15T09:08:50.858Z,5.70
2023-09-15T09:11:17.614Z,6.65
2023-09-15T09:13:54.288Z,6.00
2023-09-15T09:16:22.914Z,4.63
2023-09-15T09:18:58.484Z,5.50
2023-09-15T09:21:27.632Z,5.05
2023-09-15T09:23:55.550Z,5.13
2023-09-15T09:26:22.846Z,5.70
2023-09-15T09:28:50.384Z,4.70
2023-09-15T09:31:17.711Z,5.53
2023-09-15T09:33:44.685Z,4.78
2023-09-15T09:36:17.943Z,5.03
2023-09-15T09:38:51.603Z,5.00
2023-09-15T09:41:21.634Z,5.15
2023-09-15T09:43:52.296Z,4.85
2023-09-15T09:46:22.756Z,5.30
2023-09-15T09:48:52.828Z,4.95
2023-09-15T09:51:22.537Z,5.15
2023-09-15T09:53:57.016Z,5.03
2023-09-15T09:56:24.624Z,5.22
2023-09-15T09:58:51.627Z,4.35
2023-09-15T10:01:19.791Z,4.00
2023-09-15T10:03:47.098Z,4.45
2023-09-15T10:06:17.529Z,4.07
2023-09-15T10:08:47.555Z,4.88
2023-09-15T10:11:16.675Z,4.60
2023-09-15T10:13:45.012Z,4.05
2023-09-15T10:16:12.484Z,4.20
2023-09-15T10:18:39.618Z,4.22
2023-09-15T10:21:08.282Z,4.28
2023-09-15T10:23:36.543Z,4.68
2023-09-15T10:26:05.109Z,4.63
2023-09-15T10:31:03.021Z,4.95
2023-09-15T10:33:30.671Z,4.50
2023-09-15T10:36:05.910Z,4.70
2023-09-15T10:38:35.915Z,4.65
2023-09-15T10:41:09.400Z,4.25
2023-09-15T10:43:38.101Z,4.65
2023-09-15T10:46:05.815Z,4.65
2023-09-15T10:48:41.084Z,4.00
2023-09-15T10:51:11.294Z,3.50
2023-09-15T10:54:02.191Z,4.03
2023-09-15T10:56:29.561Z,4.22
2023-09-15T10:58:56.812Z,3.03
2023-09-15T11:01:23.834Z,3.72
2023-09-15T11:03:54.533Z,3.55
2023-09-15T11:06:26.465Z,4.22
2023-09-15T11:08:54.554Z,3.85
2023-09-15T11:11:21.528Z,3.42
2023-09-15T11:13:50.744Z,3.35
2023-09-15T11:16:17.914Z,3.20
2023-09-15T11:18:46.977Z,3.28
2023-09-15T11:21:16.537Z,3.13
2023-09-15T11:23:49.760Z,3.47
2023-09-15T11:26:27.178Z,3.28
2023-09-15T11:28:55.959Z,2.60
2023-09-15T11:31:24.689Z,3.15
2023-09-15T11:33:56.790Z,2.95
2023-09-15T11:36:24.540Z,3.22
2023-09-15T11:38:55.016Z,2.75
2023-09-15T11:41:30.531Z,4.25
2023-09-15T11:43:58.660Z,3.05
2023-09-15T11:46:26.233Z,2.97
2023-09-15T11:48:55.959Z,2.70
2023-09-15T11:51:26.359Z,2.72
2023-09-15T11:53:53.993Z,2.75
2023-09-15T11:56:21.836Z,2.58
2023-09-15T11:58:52.559Z,7.05
2023-09-15T12:01:20.879Z,2.83
2023-09-15T12:03:51.773Z,2.83
2023-09-15T12:06:21.615Z,2.25
2023-09-15T12:08:51.293Z,3.08
2023-09-15T12:11:19.402Z,2.38
2023-09-15T12:13:50.301Z,2.47
2023-09-15T12:16:30.241Z,2.35
2023-09-15T12:19:00.221Z,2.75
2023-09-15T12:21:29.527Z,2.88
2023-09-15T12:24:09.715Z,2.58
2023-09-15T12:26:41.922Z,2.65
2023-09-15T12:29:10.417Z,2.80
2023-09-15T12:31:43.109Z,2.92
2023-09-15T12:34:20.361Z,2.55
2023-09-15T12:36:52.850Z,2.53
2023-09-15T12:39:19.864Z,2.50
2023-09-15T12:41:52.201Z,2.40
2023-09-15T12:44:29.034Z,2.92
2023-09-15T12:46:56.408Z,2.72
2023-09-15T12:49:23.500Z,2.80
2023-09-15T12:51:50.202Z,2.80
2023-09-15T12:54:17.134Z,2.33
2023-09-15T12:56:44.054Z,2.60
2023-09-15T12:59:10.944Z,2.30
2023-09-15T13:01:37.749Z,2.20
2023-09-15T13:04:04.704Z,2.78
2023-09-15T13:06:31.787Z,2.28
2023-09-15T13:08:59.161Z,2.40
2023-09-15T13:11:26.067Z,2.10
2023-09-15T13:13:54.389Z,2.97
2023-09-15T13:16:21.647Z,2.42
2023-09-15T13:18:48.635Z,2.42
2023-09-15T13:21:15.521Z,2.50
2023-09-15T13:23:42.307Z,2.53
2023-09-15T13:26:10.694Z,2.20
2023-09-15T13:28:37.844Z,2.33
2023-09-15T13:31:05.288Z,2.55
2023-09-15T13:33:32.729Z,2.40
2023-09-15T13:35:59.640Z,2.40
2023-09-15T13:38:26.738Z,2.42
2023-09-15T13:40:53.798Z,2.50
2023-09-15T13:43:20.956Z,2.17
2023-09-15T13:45:54.329Z,2.20
2023-09-15T13:48:23.721Z,2.15
2023-09-15T13:50:51.829Z,1.90
2023-09-15T13:53:19.024Z,2.30
2023-09-15T13:55:48.802Z,2.20
2023-09-15T13:58:17.228Z,2.88
2023-09-15T14:00:56.779Z,2.42
2023-09-15T14:03:24.448Z,2.20
2023-09-15T14:05:51.924Z,2.63
2023-09-15T14:08:19.110Z,2.13
2023-09-15T14:10:46.031Z,2.33
2023-09-15T14:13:16.010Z,2.38
2023-09-15T14:15:45.500Z,2.33
2023-09-15T14:18:15.255Z,2.60
2023-09-15T14:20:42.252Z,2.40
2023-09-15T14:23:08.843Z,2.38
2023-09-15T14:25:35.537Z,2.60
2023-09-15T14:28:02.409Z,2.15
2023-09-15T14:30:29.089Z,2.33
2023-09-15T14:32:57.920Z,2.38
2023-09-15T14:35:24.782Z,2.00
2023-09-15T14:37:51.542Z,2.67
2023-09-15T14:40:18.286Z,3.20
2023-09-15T14:42:45.162Z,2.42
2023-09-15T14:45:11.989Z,2.47
2023-09-15T14:47:38.735Z,2.70
2023-09-15T14:50:06.830Z,2.05
2023-09-15T14:52:34.799Z,2.17
2023-09-15T14:55:01.671Z,3.33
2023-09-15T14:57:28.590Z,2.63
2023-09-15T14:59:55.344Z,2.42
2023-09-15T15:02:22.150Z,2.55
2023-09-15T15:04:48.994Z,2.50
2023-09-15T15:07:16.273Z,2.70
2023-09-15T15:09:43.377Z,2.55
2023-09-15T15:12:12.077Z,2.65
2023-09-15T15:14:38.849Z,2.97
2023-09-15T15:17:06.162Z,2.63
2023-09-15T15:19:32.984Z,2.58
2023-09-15T15:21:59.622Z,2.20
2023-09-15T15:24:26.372Z,2.47
2023-09-15T15:26:53.154Z,2.75
2023-09-15T15:29:19.774Z,2.60
2023-09-15T15:31:48.807Z,2.63
2023-09-15T15:34:15.605Z,2.70
2023-09-15T15:36:42.455Z,2.60
2023-09-15T15:39:09.048Z,2.60
2023-09-15T15:41:35.863Z,2.85
2023-09-15T15:44:02.673Z,2.20
2023-09-15T15:46:29.392Z,2.90
2023-09-15T15:48:56.193Z,2.45
2023-09-15T15:51:23.051Z,2.25
2023-09-15T15:53:49.933Z,2.35
2023-09-15T15:56:17.104Z,2.65
2023-09-15T15:58:43.850Z,2.67
2023-09-15T16:01:11.381Z,2.25
2023-09-15T16:03:38.273Z,2.60
2023-09-15T16:06:05.019Z,2.58
2023-09-15T16:08:32.726Z,2.20
2023-09-15T16:11:05.665Z,2.40
2023-09-15T16:13:36.651Z,2.40
2023-09-15T16:16:04.958Z,3.00
2023-09-15T16:18:31.909Z,2.45
2023-09-15T16:20:59.673Z,2.40
2023-09-15T16:23:26.570Z,2.75
2023-09-15T16:25:53.430Z,2.88
2023-09-15T16:28:20.524Z,2.13
2023-09-15T16:30:47.462Z,2.63
2023-09-15T16:33:14.362Z,2.25
2023-09-15T16:35:43.141Z,2.55
2023-09-15T16:38:10.524Z,3.47
2023-09-15T16:40:38.449Z,2.80
2023-09-15T16:43:06.513Z,1.88
2023-09-15T16:45:34.252Z,2.92
2023-09-15T16:48:03.961Z,2.47
2023-09-15T16:50:32.964Z,2.60
2023-09-15T16:53:00.015Z,2.40
2023-09-15T16:55:26.802Z,2.58
2023-09-15T16:57:56.150Z,2.58
2023-09-15T17:00:23.731Z,2.63
2023-09-15T17:02:50.584Z,2.83
2023-09-15T17:05:17.380Z,3.15
2023-09-15T17:07:44.199Z,2.42
2023-09-15T17:10:13.674Z,2.42
2023-09-15T17:12:44.260Z,2.35
2023-09-15T17:15:12.631Z,2.15
2023-09-15T17:17:41.922Z,2.53
2023-09-15T17:20:11.860Z,2.95
2023-09-15T17:22:38.538Z,2.47
2023-09-15T17:25:05.660Z,2.60
2023-09-15T17:27:32.360Z,2.30
2023-09-15T17:29:59.087Z,2.63
2023-09-15T17:32:25.994Z,2.47
2023-09-15T17:34:52.720Z,2.38
2023-09-15T17:37:19.596Z,3.20
2023-09-15T17:39:51.128Z,3.15
2023-09-15T17:42:20.743Z,2.53
2023-09-15T17:44:47.392Z,2.53
2023-09-15T17:47:14.099Z,2.38
2023-09-15T17:49:43.533Z,3.05
2023-09-15T17:52:12.669Z,2.45
2023-09-15T17:54:39.531Z,2.75
2023-09-15T17:57:06.424Z,2.60
2023-09-15T17:59:33.179Z,2.95
2023-09-15T18:01:59.934Z,2.75
2023-09-15T18:04:26.980Z,3.03
2023-09-15T18:06:53.794Z,2.97
2023-09-15T18:09:20.690Z,3.03
2023-09-15T18:11:47.447Z,3.22
2023-09-15T18:14:14.479Z,3.13
2023-09-15T18:16:41.533Z,2.92
2023-09-15T18:19:08.901Z,4.25
2023-09-15T18:21:35.883Z,3.30
2023-09-15T18:24:03.042Z,3.92
2023-09-15T18:26:30.041Z,4.10
2023-09-15T18:28:57.171Z,4.32
2023-09-15T18:31:27.002Z,3.55
2023-09-15T18:33:54.161Z,3.47
2023-09-15T18:36:21.800Z,3.22
2023-09-15T18:38:50.047Z,3.78
2023-09-15T18:41:18.542Z,2.88
2023-09-15T18:43:46.712Z,3.70
2023-09-15T18:46:14.261Z,4.07
2023-09-15T18:48:47.307Z,3.17
2023-09-15T18:51:18.054Z,3.78
2023-09-15T18:53:50.219Z,3.35
2023-09-15T18:56:17.720Z,3.70
2023-09-15T18:58:45.403Z,4.15
2023-09-15T19:01:15.987Z,3.55
2023-09-15T19:03:43.442Z,3.28
2023-09-15T19:06:11.807Z,3.45
2023-09-15T19:08:40.818Z,4.38
2023-09-15T19:13:34.170Z,3.65
2023-09-15T19:18:49.412Z,3.90
2023-09-15T19:21:16.167Z,3.33
2023-09-15T19:23:42.842Z,3.78
2023-09-15T19:26:09.530Z,3.30
2023-09-15T19:28:36.195Z,3.85
2023-09-15T19:31:02.814Z,3.83
2023-09-15T19:33:29.628Z,3.63
2023-09-15T19:35:56.330Z,3.80
2023-09-15T19:38:23.053Z,3.78
2023-09-15T19:40:51.270Z,4.57
2023-09-15T19:43:18.146Z,4.15
2023-09-15T19:45:48.797Z,3.80
2023-09-15T19:48:15.480Z,4.25
2023-09-15T19:50:42.080Z,3.72
2023-09-15T19:53:09.501Z,4.63
2023-09-15T19:55:36.120Z,4.00
2023-09-15T19:58:04.063Z,4.30
2023-09-15T20:00:30.731Z,4.45
2023-09-15T20:02:59.139Z,4.90
2023-09-15T20:05:25.960Z,4.57
2023-09-15T20:07:56.427Z,4.78
2023-09-15T20:10:24.164Z,4.18
2023-09-15T20:12:51.128Z,3.85
2023-09-15T20:15:17.742Z,4.50
2023-09-15T20:20:17.879Z,4.03
2023-09-15T20:22:45.684Z,4.28
2023-09-15T20:25:12.663Z,5.20
2023-09-15T20:27:42.216Z,4.43
2023-09-15T20:30:10.029Z,4.22
2023-09-15T20:32:37.059Z,4.75
2023-09-15T20:35:05.639Z,4.22
2023-09-15T20:37:32.200Z,3.88
2023-09-15T20:42:25.974Z,3.47
2023-09-15T20:44:52.812Z,3.65
2023-09-15T20:47:19.706Z,4.85
2023-09-15T20:49:48.412Z,4.35
2023-09-15T20:52:15.474Z,3.97
2023-09-15T20:54:42.548Z,4.03
2023-09-15T20:57:09.170Z,4.28
2023-09-15T21:02:02.955Z,4.57
2023-09-15T21:06:56.276Z,4.80
2023-09-15T21:09:23.081Z,4.60
2023-09-15T21:11:49.770Z,4.55
2023-09-15T21:14:16.427Z,4.80
2023-09-15T21:16:43.164Z,4.65
2023-09-15T21:19:11.934Z,4.25
2023-09-15T21:21:39.541Z,4.68
2023-09-15T21:24:06.434Z,4.32
2023-09-15T21:26:33.071Z,4.82
2023-09-15T21:31:27.909Z,4.20
2023-09-15T21:33:54.751Z,4.35
2023-09-15T21:36:21.666Z,4.65
2023-09-15T21:38:49.351Z,4.82
2023-09-15T21:41:16.781Z,4.80
2023-09-15T21:43:43.498Z,4.50
2023-09-15T21:46:10.148Z,4.18
2023-09-15T21:48:38.914Z,4.10
2023-09-15T21:51:06.087Z,4.82
2023-09-15T21:53:34.190Z,4.55
2023-09-15T21:56:01.260Z,4.90
2023-09-15T21:58:28.088Z,4.95
2023-09-15T22:18:25.586Z,6.20
2023-09-15T22:20:52.382Z,5.68
2023-09-15T22:23:19.642Z,5.75
2023-09-15T22:25:46.460Z,5.55
2023-09-15T22:28:13.040Z,5.68
2023-09-15T22:33:06.281Z,6.53
2023-09-15T22:35:32.942Z,6.72
2023-09-15T22:37:59.640Z,6.50
2023-09-15T22:40:26.580Z,5.88
2023-09-15T22:42:53.682Z,6.22
2023-09-15T22:45:23.310Z,6.05
2023-09-15T22:47:56.723Z,5.75
2023-09-15T22:50:25.291Z,5.38
2023-09-15T22:52:53.727Z,5.72
2023-09-15T22:55:21.879Z,4.90
2023-09-15T22:57:49.055Z,5.60
2023-09-15T23:00:17.830Z,5.35
2023-09-15T23:02:47.651Z,6.00
2023-09-15T23:05:14.690Z,5.20
2023-09-15T23:07:41.713Z,6.00
2023-09-15T23:10:09.695Z,5.53
2023-09-15T23:12:37.128Z,5.63
2023-09-15T23:15:03.978Z,5.90
2023-09-15T23:17:31.130Z,5.72
2023-09-15T23:19:58.053Z,5.47
2023-09-15T23:22:25.068Z,6.20
2023-09-15T23:24:52.750Z,5.93
2023-09-15T23:27:19.874Z,5.55
2023-09-15T23:29:46.980Z,5.80
2023-09-15T23:32:13.785Z,5.50
2023-09-15T23:34:40.566Z,5.05
2023-09-15T23:37:07.400Z,5.78
2023-09-15T23:39:36.287Z,13.05
2023-09-15T23:42:03.931Z,17.95
2023-09-15T23:44:31.111Z,15.05
2023-09-15T23:46:57.869Z,12.38
2023-09-15T23:49:24.883Z,8.70
2023-09-15T23:51:52.275Z,7.30
2023-09-15T23:54:19.322Z,6.38
2023-09-15T23:56:46.304Z,6.88
2023-09-15T23:59:13.356Z,6.70
